Flight Track Log - Related Links

Times and Time Zones

All times are in EDT time to prevent confusion due to time zone crossing. See the KAP29 flight status page for this flight to view local times or setup timezone preferences in your user account.

Time Position Orientation Groundspeed Altitude Reporting Facility
EDT Latitude Longitude Course Direction KTS MPH feet Rate Location/Type
Fri 01:18:01 PM 42.3833 -71.0000 360° North 110 127 500  Level KA90
Fri 01:18:25 PM 42.4000 -71.0000 360° North 119 137 900 933 Climbing KA90
Fri 01:19:31 PM 42.4333 -71.0333 324° Northwest 122 140 1,900 714 Climbing KA90
Fri 01:20:31 PM 42.4500 -71.0667 304° West 132 152 2,400 600 Climbing KA90
Fri 01:21:31 PM 42.4833 -71.0833 340° North 121 139 3,100 600 Climbing KA90
Fri 01:22:31 PM 42.5167 -71.0833 360° North 117 135 3,600 600 Climbing KA90
Fri 01:23:31 PM 42.5333 -71.0667 36° Northeast 106 122 4,300 667 Climbing KA90
Fri 01:24:37 PM 42.5667 -71.0500 20° North 113 130 5,000 600 Climbing KA90
Fri 01:25:31 PM 42.6000 -71.0667 340° North 118 136 5,500 526 Climbing KA90
Fri 01:26:31 PM 42.6167 -71.1000 304° West 118 136 6,000 500 Climbing KA90
Fri 01:27:31 PM 42.6500 -71.1167 340° North 120 138 6,500 526 Climbing KA90
Fri 01:28:25 PM 42.6667 -71.1500 304° West 120 138 7,000 526 Climbing KA90
Fri 01:29:25 PM 42.7000 -71.1833 324° Northwest 122 140 7,500 496 Climbing KA90
Fri 01:30:26 PM 42.7167 -71.2167 304° West 126 145 8,000 250 Climbing KA90
Fri 01:31:25 PM 42.7500 -71.2333 340° North 146 168 8,000  Level KA90
Fri 01:32:31 PM 42.8000 -71.2833 324° Northwest 158 182 8,000  Level KA90
Fri 01:33:25 PM 42.8333 -71.3167 324° Northwest 168 193 8,000  Level KA90
Fri 01:34:25 PM 42.8667 -71.3667 312° West 170 196 8,000  Level KA90
Fri 01:35:25 PM 42.8833 -71.4167 294° West 168 193 8,000 99 Level KA90
Fri 01:36:26 PM 42.9167 -71.4500 324° Northwest 170 196 8,200 333 Climbing KA90
Fri 01:37:31 PM 42.9500 -71.5000 312° West 147 169 8,700 384 Climbing KA90
Fri 01:38:31 PM 42.9833 -71.5500 312° West 146 168 9,000 347 Climbing KA90
Fri 01:39:32 PM 43.0000 -71.5833 304° West 144 166 9,400 347 Climbing KA90
Fri 01:40:32 PM 43.0333 -71.6167 324° Northwest 141 162 9,700 264 Climbing KA90
Fri 01:41:03 PM 43.0519 -71.6417 316° Northwest 152 175 9,800 198 Climbing Boston Center
Fri 01:42:03 PM 43.0794 -71.6725 321° Northwest 152 175 10,000 100 Climbing Boston Center
Fri 01:43:03 PM 43.1172 -71.7119 323° Northwest 157 181 10,000  Level Boston Center
Fri 01:44:03 PM 43.1464 -71.7458 320° Northwest 157 181 10,000  Level Boston Center
Fri 01:45:03 PM 43.1864 -71.7853 324° Northwest 157 181 10,000  Level Boston Center
Fri 01:46:03 PM 43.2219 -71.8106 333° Northwest 157 181 10,000  Level Boston Center
Fri 01:47:03 PM 43.2658 -71.8442 331° Northwest 157 181 10,000  Level Boston Center
Fri 01:48:03 PM 43.3033 -71.8667 336° Northwest 157 181 10,000  Level Boston Center
Fri 01:49:03 PM 43.3472 -71.8861 342° North 157 181 10,000  Level Boston Center
Fri 01:50:03 PM 43.3786 -71.9231 319° Northwest 157 181 10,000  Level Boston Center
Fri 01:51:03 PM 43.4122 -71.9656 317° Northwest 163 188 10,000  Level Boston Center
Fri 01:52:03 PM 43.4458 -72.0169 312° West 169 194 10,000  Level Boston Center
Fri 01:53:03 PM 43.4731 -72.0625 309° West 164 189 10,000  Level Boston Center
Fri 01:54:03 PM 43.5003 -72.1053 311° West 158 182 10,000  Level Boston Center
Fri 01:55:03 PM 43.5275 -72.1453 313° West 158 182 10,000  Level Boston Center
Fri 01:56:03 PM 43.5567 -72.1881 313° West 158 182 10,000  Level Boston Center
Fri 01:57:03 PM 43.5881 -72.2281 317° Northwest 158 182 10,000  Level Boston Center
Fri 01:58:03 PM 43.6172 -72.2653 317° Northwest 158 182 10,000  Level Boston Center
Fri 01:59:03 PM 43.6486 -72.3025 319° Northwest 153 176 10,000  Level Boston Center
Fri 02:00:03 PM 43.6819 -72.3397 321° Northwest 147 169 10,000  Level Boston Center
Fri 02:01:03 PM 43.7069 -72.3856 307° West 147 169 10,000  Level Boston Center
Fri 02:02:03 PM 43.7300 -72.4372 302° West 152 175 10,000 -50 Level Boston Center
Fri 02:03:03 PM 43.7592 -72.4775 315° West 152 175 9,900 -50 Descending Boston Center
Fri 02:04:03 PM 43.7903 -72.5178 317° Northwest 152 175 9,900  Level Boston Center
Fri 02:05:03 PM 43.8217 -72.5553 319° Northwest 147 169 9,900  Level Boston Center
Fri 02:06:03 PM 43.8486 -72.5983 311° West 147 169 9,900 50 Level Boston Center
Fri 02:07:03 PM 43.8819 -72.6444 315° West 147 169 10,000 50 Climbing Boston Center
Fri 02:08:03 PM 43.9089 -72.6878 311° West 147 169 10,000  Level Boston Center
Fri 02:09:03 PM 43.9381 -72.7342 311° West 155 178 10,000  Level Boston Center
Fri 02:10:03 PM 43.9692 -72.7806 313° West 160 184 10,000  Level Boston Center
Fri 02:11:03 PM 43.9919 -72.8297 303° West 160 184 10,000  Level Boston Center
Fri 02:12:03 PM 44.0189 -72.8817 306° West 160 184 10,000  Level Boston Center
Fri 02:13:03 PM 44.0456 -72.9311 307° West 160 184 10,000  Level Boston Center
Fri 02:14:03 PM 44.0683 -72.9775 304° West 160 184 10,000  Level Boston Center
Fri 02:15:03 PM 44.0931 -73.0239 307° West 155 178 10,000  Level Boston Center
Fri 02:16:03 PM 44.1178 -73.0764 303° West 155 178 10,000  Level Boston Center
Fri 02:17:03 PM 44.1447 -73.1228 309° West 155 178 10,000  Level Boston Center
Fri 02:18:03 PM 44.1694 -73.1722 305° West 155 178 10,000  Level Boston Center
Fri 02:19:15 PM 44.1961 -73.2219 307° West 155 178 10,000  Level Boston Center
Fri 02:20:15 PM 44.2292 -73.2861 306° West 150 173 10,000  Level Boston Center
Fri 02:21:15 PM 44.2558 -73.3386 305° West 156 180 10,000  Level Boston Center
Fri 02:22:15 PM 44.2825 -73.3853 309° West 156 180 10,000  Level Boston Center
Fri 02:23:15 PM 44.3050 -73.4264 307° West 156 180 10,000  Level Boston Center
Fri 02:24:15 PM 44.3297 -73.4733 306° West 156 180 10,000 -200 Level Boston Center
Fri 02:25:15 PM 44.3542 -73.5258 303° West 156 180 9,600 -450 Descending Boston Center
Fri 02:26:15 PM 44.3767 -73.5700 305° West 162 186 9,100 -750 Descending Boston Center
Fri 02:27:15 PM 44.4114 -73.6375 306° West 173 199 8,100 -900 Descending Boston Center
Fri 02:28:15 PM 44.4400 -73.6933 306° West 178 205 7,300 -800 Descending Boston Center

Login

Don't have an account? Register now (free) for customized features, flight alerts, and more!